sensor_id;sensor_type;location;lat;lon;timestamp;P1;durP1;ratioP1;P2;durP2;ratioP2
16436;SDS011;8328;52.206;21.006;2023-08-06T00:00:39;28.77;;;16.50;;
16436;SDS011;8328;52.206;21.006;2023-08-06T00:03:05;25.80;;;16.50;;
16436;SDS011;8328;52.206;21.006;2023-08-06T00:05:31;27.30;;;16.03;;
16436;SDS011;8328;52.206;21.006;2023-08-06T00:07:57;29.27;;;15.47;;
16436;SDS011;8328;52.206;21.006;2023-08-06T00:10:22;29.77;;;15.93;;
16436;SDS011;8328;52.206;21.006;2023-08-06T00:12:48;27.33;;;16.13;;
16436;SDS011;8328;52.206;21.006;2023-08-06T00:15:14;26.03;;;15.43;;
16436;SDS011;8328;52.206;21.006;2023-08-06T00:17:40;28.73;;;16.37;;
16436;SDS011;8328;52.206;21.006;2023-08-06T00:20:06;28.13;;;15.90;;
16436;SDS011;8328;52.206;21.006;2023-08-06T00:22:33;28.33;;;16.07;;
16436;SDS011;8328;52.206;21.006;2023-08-06T00:25:00;26.20;;;14.83;;
16436;SDS011;8328;52.206;21.006;2023-08-06T00:27:26;25.90;;;15.47;;
16436;SDS011;8328;52.206;21.006;2023-08-06T00:29:52;25.20;;;15.50;;
16436;SDS011;8328;52.206;21.006;2023-08-06T00:32:18;28.60;;;15.53;;
16436;SDS011;8328;52.206;21.006;2023-08-06T00:34:45;23.70;;;14.43;;
16436;SDS011;8328;52.206;21.006;2023-08-06T00:37:11;27.93;;;15.40;;
16436;SDS011;8328;52.206;21.006;2023-08-06T00:39:36;22.10;;;14.93;;
16436;SDS011;8328;52.206;21.006;2023-08-06T00:42:02;22.80;;;14.70;;
16436;SDS011;8328;52.206;21.006;2023-08-06T00:44:28;23.90;;;15.17;;
16436;SDS011;8328;52.206;21.006;2023-08-06T00:46:54;18.47;;;13.23;;
16436;SDS011;8328;52.206;21.006;2023-08-06T00:49:21;21.27;;;13.10;;
16436;SDS011;8328;52.206;21.006;2023-08-06T00:51:46;18.07;;;11.97;;
16436;SDS011;8328;52.206;21.006;2023-08-06T00:54:12;17.53;;;12.40;;
16436;SDS011;8328;52.206;21.006;2023-08-06T00:56:39;20.00;;;12.43;;
16436;SDS011;8328;52.206;21.006;2023-08-06T00:59:06;19.07;;;12.53;;
16436;SDS011;8328;52.206;21.006;2023-08-06T01:01:32;16.17;;;12.73;;
16436;SDS011;8328;52.206;21.006;2023-08-06T01:03:57;16.30;;;11.40;;
16436;SDS011;8328;52.206;21.006;2023-08-06T01:06:35;13.87;;;10.90;;
16436;SDS011;8328;52.206;21.006;2023-08-06T01:09:17;15.90;;;11.37;;
16436;SDS011;8328;52.206;21.006;2023-08-06T01:12:07;14.27;;;11.73;;
16436;SDS011;8328;52.206;21.006;2023-08-06T01:17:29;15.40;;;12.07;;
16436;SDS011;8328;52.206;21.006;2023-08-06T01:19:56;17.00;;;12.50;;
16436;SDS011;8328;52.206;21.006;2023-08-06T01:22:21;16.43;;;11.80;;
16436;SDS011;8328;52.206;21.006;2023-08-06T01:24:48;13.77;;;11.97;;
16436;SDS011;8328;52.206;21.006;2023-08-06T01:27:17;14.50;;;11.37;;
16436;SDS011;8328;52.206;21.006;2023-08-06T01:30:03;13.67;;;11.80;;
16436;SDS011;8328;52.206;21.006;2023-08-06T01:32:37;16.07;;;12.30;;
16436;SDS011;8328;52.206;21.006;2023-08-06T01:35:07;15.47;;;12.10;;
16436;SDS011;8328;52.206;21.006;2023-08-06T01:37:36;16.87;;;12.40;;
16436;SDS011;8328;52.206;21.006;2023-08-06T01:40:10;13.23;;;11.30;;
16436;SDS011;8328;52.206;21.006;2023-08-06T01:42:37;13.30;;;11.67;;
16436;SDS011;8328;52.206;21.006;2023-08-06T01:45:04;13.77;;;11.80;;
16436;SDS011;8328;52.206;21.006;2023-08-06T01:47:31;16.07;;;12.27;;
16436;SDS011;8328;52.206;21.006;2023-08-06T01:49:56;17.03;;;12.37;;
16436;SDS011;8328;52.206;21.006;2023-08-06T01:52:22;15.03;;;11.27;;
16436;SDS011;8328;52.206;21.006;2023-08-06T01:54:48;14.47;;;11.93;;
16436;SDS011;8328;52.206;21.006;2023-08-06T01:57:13;13.77;;;11.73;;
16436;SDS011;8328;52.206;21.006;2023-08-06T01:59:39;12.67;;;11.13;;
16436;SDS011;8328;52.206;21.006;2023-08-06T02:02:05;12.53;;;10.77;;
16436;SDS011;8328;52.206;21.006;2023-08-06T02:04:31;13.73;;;10.40;;
16436;SDS011;8328;52.206;21.006;2023-08-06T02:06:56;13.20;;;11.03;;
16436;SDS011;8328;52.206;21.006;2023-08-06T02:09:22;13.40;;;10.10;;
16436;SDS011;8328;52.206;21.006;2023-08-06T02:11:48;12.87;;;9.83;;
16436;SDS011;8328;52.206;21.006;2023-08-06T02:14:14;12.20;;;10.87;;
16436;SDS011;8328;52.206;21.006;2023-08-06T02:16:40;11.20;;;9.77;;
16436;SDS011;8328;52.206;21.006;2023-08-06T02:19:05;12.20;;;10.90;;
16436;SDS011;8328;52.206;21.006;2023-08-06T02:21:31;12.57;;;11.13;;
16436;SDS011;8328;52.206;21.006;2023-08-06T02:23:57;13.17;;;10.93;;
16436;SDS011;8328;52.206;21.006;2023-08-06T02:26:22;16.23;;;11.47;;
16436;SDS011;8328;52.206;21.006;2023-08-06T02:28:48;12.00;;;9.97;;
16436;SDS011;8328;52.206;21.006;2023-08-06T02:31:14;12.53;;;10.40;;
16436;SDS011;8328;52.206;21.006;2023-08-06T02:33:40;14.50;;;10.60;;
16436;SDS011;8328;52.206;21.006;2023-08-06T02:36:05;12.60;;;11.00;;
16436;SDS011;8328;52.206;21.006;2023-08-06T02:38:32;14.27;;;10.17;;
16436;SDS011;8328;52.206;21.006;2023-08-06T02:40:58;13.83;;;10.03;;
16436;SDS011;8328;52.206;21.006;2023-08-06T02:43:23;14.40;;;10.90;;
16436;SDS011;8328;52.206;21.006;2023-08-06T02:45:49;13.50;;;10.63;;
16436;SDS011;8328;52.206;21.006;2023-08-06T02:48:15;11.80;;;9.80;;
16436;SDS011;8328;52.206;21.006;2023-08-06T02:50:43;12.30;;;10.50;;
16436;SDS011;8328;52.206;21.006;2023-08-06T02:53:09;15.57;;;10.93;;
16436;SDS011;8328;52.206;21.006;2023-08-06T02:55:35;13.90;;;11.07;;
16436;SDS011;8328;52.206;21.006;2023-08-06T02:58:01;13.80;;;11.20;;
16436;SDS011;8328;52.206;21.006;2023-08-06T03:00:28;14.90;;;10.83;;
16436;SDS011;8328;52.206;21.006;2023-08-06T03:02:53;14.13;;;10.90;;
16436;SDS011;8328;52.206;21.006;2023-08-06T03:05:19;13.63;;;11.67;;
16436;SDS011;8328;52.206;21.006;2023-08-06T03:07:45;13.27;;;10.57;;
16436;SDS011;8328;52.206;21.006;2023-08-06T03:10:11;13.43;;;10.90;;
16436;SDS011;8328;52.206;21.006;2023-08-06T03:12:38;15.10;;;11.97;;
16436;SDS011;8328;52.206;21.006;2023-08-06T03:15:04;16.43;;;12.07;;
16436;SDS011;8328;52.206;21.006;2023-08-06T03:17:30;14.80;;;11.97;;
16436;SDS011;8328;52.206;21.006;2023-08-06T03:19:56;15.53;;;12.73;;
16436;SDS011;8328;52.206;21.006;2023-08-06T03:22:21;16.03;;;12.53;;
16436;SDS011;8328;52.206;21.006;2023-08-06T03:24:49;15.17;;;12.80;;
16436;SDS011;8328;52.206;21.006;2023-08-06T03:27:16;17.63;;;12.80;;
16436;SDS011;8328;52.206;21.006;2023-08-06T03:29:42;13.93;;;12.50;;
16436;SDS011;8328;52.206;21.006;2023-08-06T03:32:08;18.13;;;14.13;;
16436;SDS011;8328;52.206;21.006;2023-08-06T03:34:34;19.03;;;14.03;;
16436;SDS011;8328;52.206;21.006;2023-08-06T03:36:59;20.73;;;14.43;;
16436;SDS011;8328;52.206;21.006;2023-08-06T03:39:25;18.63;;;14.37;;
16436;SDS011;8328;52.206;21.006;2023-08-06T03:41:51;18.67;;;13.63;;
16436;SDS011;8328;52.206;21.006;2023-08-06T03:44:17;18.07;;;14.23;;
16436;SDS011;8328;52.206;21.006;2023-08-06T03:46:42;16.63;;;14.37;;
16436;SDS011;8328;52.206;21.006;2023-08-06T03:49:08;20.27;;;14.50;;
16436;SDS011;8328;52.206;21.006;2023-08-06T03:51:34;19.07;;;15.90;;
16436;SDS011;8328;52.206;21.006;2023-08-06T03:54:00;20.57;;;15.33;;
16436;SDS011;8328;52.206;21.006;2023-08-06T03:56:25;19.80;;;15.60;;
16436;SDS011;8328;52.206;21.006;2023-08-06T03:58:51;17.70;;;15.40;;
16436;SDS011;8328;52.206;21.006;2023-08-06T04:01:17;21.03;;;16.07;;
16436;SDS011;8328;52.206;21.006;2023-08-06T04:03:43;18.20;;;15.37;;
16436;SDS011;8328;52.206;21.006;2023-08-06T04:06:08;20.23;;;15.80;;
16436;SDS011;8328;52.206;21.006;2023-08-06T04:08:34;19.53;;;15.80;;
16436;SDS011;8328;52.206;21.006;2023-08-06T04:11:00;19.07;;;14.90;;
16436;SDS011;8328;52.206;21.006;2023-08-06T04:13:26;20.50;;;16.57;;
16436;SDS011;8328;52.206;21.006;2023-08-06T04:15:52;20.30;;;16.10;;
16436;SDS011;8328;52.206;21.006;2023-08-06T04:18:19;20.23;;;16.67;;
16436;SDS011;8328;52.206;21.006;2023-08-06T04:20:45;19.57;;;16.57;;
16436;SDS011;8328;52.206;21.006;2023-08-06T04:23:12;21.23;;;15.90;;
16436;SDS011;8328;52.206;21.006;2023-08-06T04:25:38;18.50;;;15.00;;
16436;SDS011;8328;52.206;21.006;2023-08-06T04:28:04;19.60;;;15.40;;
16436;SDS011;8328;52.206;21.006;2023-08-06T04:30:30;16.70;;;14.93;;
16436;SDS011;8328;52.206;21.006;2023-08-06T04:32:59;17.13;;;15.10;;
16436;SDS011;8328;52.206;21.006;2023-08-06T04:35:24;17.20;;;14.53;;
16436;SDS011;8328;52.206;21.006;2023-08-06T04:37:50;17.90;;;15.20;;
16436;SDS011;8328;52.206;21.006;2023-08-06T04:40:16;19.13;;;15.33;;
16436;SDS011;8328;52.206;21.006;2023-08-06T04:42:42;18.20;;;13.97;;
16436;SDS011;8328;52.206;21.006;2023-08-06T04:45:08;20.40;;;14.57;;
16436;SDS011;8328;52.206;21.006;2023-08-06T04:47:34;15.20;;;13.60;;
16436;SDS011;8328;52.206;21.006;2023-08-06T04:50:00;18.20;;;13.87;;
16436;SDS011;8328;52.206;21.006;2023-08-06T04:52:26;15.67;;;13.63;;
16436;SDS011;8328;52.206;21.006;2023-08-06T04:54:53;16.93;;;13.57;;
16436;SDS011;8328;52.206;21.006;2023-08-06T04:57:20;14.73;;;13.20;;
16436;SDS011;8328;52.206;21.006;2023-08-06T04:59:46;18.30;;;15.37;;
16436;SDS011;8328;52.206;21.006;2023-08-06T05:02:12;16.33;;;14.10;;
16436;SDS011;8328;52.206;21.006;2023-08-06T05:04:38;14.37;;;12.97;;
16436;SDS011;8328;52.206;21.006;2023-08-06T05:07:07;17.77;;;14.40;;
16436;SDS011;8328;52.206;21.006;2023-08-06T05:09:33;21.97;;;16.20;;
16436;SDS011;8328;52.206;21.006;2023-08-06T05:12:03;13.47;;;12.20;;
16436;SDS011;8328;52.206;21.006;2023-08-06T05:14:29;14.63;;;12.77;;
16436;SDS011;8328;52.206;21.006;2023-08-06T05:16:57;13.03;;;11.83;;
16436;SDS011;8328;52.206;21.006;2023-08-06T05:19:23;15.63;;;12.53;;
16436;SDS011;8328;52.206;21.006;2023-08-06T05:21:49;12.90;;;11.57;;
16436;SDS011;8328;52.206;21.006;2023-08-06T05:24:15;14.43;;;11.50;;
16436;SDS011;8328;52.206;21.006;2023-08-06T05:26:41;14.40;;;12.03;;
16436;SDS011;8328;52.206;21.006;2023-08-06T05:29:07;18.00;;;12.07;;
16436;SDS011;8328;52.206;21.006;2023-08-06T05:31:33;13.37;;;11.97;;
16436;SDS011;8328;52.206;21.006;2023-08-06T05:33:59;12.33;;;11.03;;
16436;SDS011;8328;52.206;21.006;2023-08-06T05:36:24;11.73;;;10.50;;
16436;SDS011;8328;52.206;21.006;2023-08-06T05:38:51;11.10;;;10.00;;
16436;SDS011;8328;52.206;21.006;2023-08-06T05:41:16;12.67;;;11.47;;
16436;SDS011;8328;52.206;21.006;2023-08-06T05:43:42;13.80;;;9.67;;
16436;SDS011;8328;52.206;21.006;2023-08-06T05:46:08;10.77;;;9.67;;
16436;SDS011;8328;52.206;21.006;2023-08-06T05:48:34;11.27;;;9.00;;
16436;SDS011;8328;52.206;21.006;2023-08-06T05:51:03;10.70;;;9.57;;
16436;SDS011;8328;52.206;21.006;2023-08-06T05:53:29;10.80;;;9.23;;
16436;SDS011;8328;52.206;21.006;2023-08-06T05:55:55;11.53;;;10.37;;
16436;SDS011;8328;52.206;21.006;2023-08-06T05:58:21;10.63;;;9.13;;
16436;SDS011;8328;52.206;21.006;2023-08-06T06:00:49;9.73;;;8.70;;
16436;SDS011;8328;52.206;21.006;2023-08-06T06:03:17;10.77;;;9.33;;
16436;SDS011;8328;52.206;21.006;2023-08-06T06:05:43;11.23;;;8.50;;
16436;SDS011;8328;52.206;21.006;2023-08-06T06:08:09;9.77;;;8.77;;
16436;SDS011;8328;52.206;21.006;2023-08-06T06:10:35;11.93;;;8.77;;
16436;SDS011;8328;52.206;21.006;2023-08-06T06:13:01;9.33;;;8.53;;
16436;SDS011;8328;52.206;21.006;2023-08-06T06:15:27;12.10;;;8.73;;
16436;SDS011;8328;52.206;21.006;2023-08-06T06:17:53;11.47;;;9.30;;
16436;SDS011;8328;52.206;21.006;2023-08-06T06:20:18;13.40;;;11.00;;
16436;SDS011;8328;52.206;21.006;2023-08-06T06:22:44;11.63;;;10.43;;
16436;SDS011;8328;52.206;21.006;2023-08-06T06:25:10;10.20;;;8.77;;
16436;SDS011;8328;52.206;21.006;2023-08-06T06:27:36;10.27;;;8.13;;
16436;SDS011;8328;52.206;21.006;2023-08-06T06:30:02;13.27;;;8.50;;
16436;SDS011;8328;52.206;21.006;2023-08-06T06:32:29;9.53;;;8.43;;
16436;SDS011;8328;52.206;21.006;2023-08-06T06:34:54;9.77;;;7.93;;
16436;SDS011;8328;52.206;21.006;2023-08-06T06:37:20;13.90;;;8.50;;
16436;SDS011;8328;52.206;21.006;2023-08-06T06:39:46;9.53;;;8.13;;
16436;SDS011;8328;52.206;21.006;2023-08-06T06:42:12;10.57;;;7.73;;
16436;SDS011;8328;52.206;21.006;2023-08-06T06:44:40;8.63;;;7.73;;
16436;SDS011;8328;52.206;21.006;2023-08-06T06:47:06;7.70;;;7.00;;
16436;SDS011;8328;52.206;21.006;2023-08-06T06:49:32;8.83;;;7.97;;
16436;SDS011;8328;52.206;21.006;2023-08-06T06:54:33;8.33;;;7.53;;
16436;SDS011;8328;52.206;21.006;2023-08-06T06:56:59;9.97;;;8.50;;
16436;SDS011;8328;52.206;21.006;2023-08-06T06:59:25;9.77;;;7.33;;
16436;SDS011;8328;52.206;21.006;2023-08-06T07:01:50;9.70;;;7.83;;
16436;SDS011;8328;52.206;21.006;2023-08-06T07:04:22;10.93;;;8.27;;
16436;SDS011;8328;52.206;21.006;2023-08-06T07:07:07;11.87;;;7.60;;
16436;SDS011;8328;52.206;21.006;2023-08-06T07:09:33;9.90;;;8.23;;
16436;SDS011;8328;52.206;21.006;2023-08-06T07:12:05;12.57;;;7.87;;
16436;SDS011;8328;52.206;21.006;2023-08-06T07:14:37;8.33;;;7.03;;
16436;SDS011;8328;52.206;21.006;2023-08-06T07:22:55;11.13;;;8.27;;
16436;SDS011;8328;52.206;21.006;2023-08-06T07:25:20;11.60;;;8.00;;
16436;SDS011;8328;52.206;21.006;2023-08-06T07:27:46;9.03;;;8.03;;
16436;SDS011;8328;52.206;21.006;2023-08-06T07:30:12;13.37;;;8.37;;
16436;SDS011;8328;52.206;21.006;2023-08-06T07:32:38;13.37;;;7.50;;
16436;SDS011;8328;52.206;21.006;2023-08-06T07:35:04;13.93;;;7.97;;
16436;SDS011;8328;52.206;21.006;2023-08-06T07:37:37;8.37;;;7.53;;
16436;SDS011;8328;52.206;21.006;2023-08-06T07:40:04;8.53;;;7.63;;
16436;SDS011;8328;52.206;21.006;2023-08-06T07:42:33;12.27;;;7.83;;
16436;SDS011;8328;52.206;21.006;2023-08-06T07:47:56;9.43;;;7.30;;
16436;SDS011;8328;52.206;21.006;2023-08-06T07:50:22;10.67;;;7.60;;
16436;SDS011;8328;52.206;21.006;2023-08-06T07:52:48;8.73;;;7.83;;
16436;SDS011;8328;52.206;21.006;2023-08-06T07:55:13;11.77;;;7.87;;
16436;SDS011;8328;52.206;21.006;2023-08-06T07:57:39;8.87;;;7.53;;
16436;SDS011;8328;52.206;21.006;2023-08-06T08:00:05;8.47;;;7.53;;
16436;SDS011;8328;52.206;21.006;2023-08-06T08:02:32;8.97;;;7.30;;
16436;SDS011;8328;52.206;21.006;2023-08-06T08:04:59;8.73;;;7.83;;
16436;SDS011;8328;52.206;21.006;2023-08-06T08:07:25;8.70;;;7.70;;
16436;SDS011;8328;52.206;21.006;2023-08-06T08:09:56;8.57;;;7.03;;
16436;SDS011;8328;52.206;21.006;2023-08-06T08:12:22;11.03;;;7.50;;
16436;SDS011;8328;52.206;21.006;2023-08-06T08:14:48;9.63;;;7.80;;
16436;SDS011;8328;52.206;21.006;2023-08-06T08:17:14;12.67;;;7.57;;
16436;SDS011;8328;52.206;21.006;2023-08-06T08:19:40;8.20;;;7.47;;
16436;SDS011;8328;52.206;21.006;2023-08-06T08:22:06;8.73;;;7.87;;
16436;SDS011;8328;52.206;21.006;2023-08-06T08:24:32;10.67;;;7.83;;
16436;SDS011;8328;52.206;21.006;2023-08-06T08:26:58;8.63;;;7.83;;
16436;SDS011;8328;52.206;21.006;2023-08-06T08:29:24;9.43;;;7.27;;
16436;SDS011;8328;52.206;21.006;2023-08-06T08:31:50;12.07;;;8.17;;
16436;SDS011;8328;52.206;21.006;2023-08-06T08:34:16;10.67;;;7.73;;
16436;SDS011;8328;52.206;21.006;2023-08-06T08:36:42;9.33;;;7.57;;
16436;SDS011;8328;52.206;21.006;2023-08-06T08:39:08;9.90;;;7.50;;
16436;SDS011;8328;52.206;21.006;2023-08-06T08:41:36;10.77;;;7.57;;
16436;SDS011;8328;52.206;21.006;2023-08-06T08:44:03;14.73;;;8.00;;
16436;SDS011;8328;52.206;21.006;2023-08-06T08:46:37;12.40;;;7.47;;
16436;SDS011;8328;52.206;21.006;2023-08-06T08:49:05;8.23;;;7.30;;
16436;SDS011;8328;52.206;21.006;2023-08-06T08:51:32;12.27;;;7.47;;
16436;SDS011;8328;52.206;21.006;2023-08-06T08:53:59;9.20;;;8.30;;
16436;SDS011;8328;52.206;21.006;2023-08-06T08:56:28;7.13;;;6.43;;
16436;SDS011;8328;52.206;21.006;2023-08-06T08:58:54;7.33;;;6.63;;
16436;SDS011;8328;52.206;21.006;2023-08-06T09:01:21;8.70;;;6.53;;
16436;SDS011;8328;52.206;21.006;2023-08-06T09:03:47;8.80;;;7.03;;
16436;SDS011;8328;52.206;21.006;2023-08-06T09:06:13;8.00;;;6.60;;
16436;SDS011;8328;52.206;21.006;2023-08-06T09:08:43;7.47;;;6.70;;
16436;SDS011;8328;52.206;21.006;2023-08-06T09:11:16;8.30;;;6.80;;
16436;SDS011;8328;52.206;21.006;2023-08-06T09:13:45;10.57;;;6.60;;
16436;SDS011;8328;52.206;21.006;2023-08-06T09:16:12;7.57;;;6.60;;
16436;SDS011;8328;52.206;21.006;2023-08-06T09:18:38;9.77;;;6.40;;
16436;SDS011;8328;52.206;21.006;2023-08-06T09:21:04;11.73;;;6.70;;
16436;SDS011;8328;52.206;21.006;2023-08-06T09:23:30;7.97;;;6.43;;
16436;SDS011;8328;52.206;21.006;2023-08-06T09:25:58;7.20;;;6.17;;
16436;SDS011;8328;52.206;21.006;2023-08-06T09:28:24;6.87;;;6.10;;
16436;SDS011;8328;52.206;21.006;2023-08-06T09:30:50;10.60;;;6.47;;
16436;SDS011;8328;52.206;21.006;2023-08-06T09:33:20;6.93;;;6.20;;
16436;SDS011;8328;52.206;21.006;2023-08-06T09:35:48;8.43;;;5.93;;
16436;SDS011;8328;52.206;21.006;2023-08-06T09:38:14;6.87;;;6.23;;
16436;SDS011;8328;52.206;21.006;2023-08-06T09:40:40;8.10;;;5.83;;
16436;SDS011;8328;52.206;21.006;2023-08-06T09:43:06;6.90;;;6.20;;
16436;SDS011;8328;52.206;21.006;2023-08-06T09:45:36;8.97;;;6.30;;
16436;SDS011;8328;52.206;21.006;2023-08-06T09:48:03;6.30;;;5.80;;
16436;SDS011;8328;52.206;21.006;2023-08-06T09:50:34;6.33;;;5.77;;
16436;SDS011;8328;52.206;21.006;2023-08-06T09:53:05;7.10;;;6.10;;
16436;SDS011;8328;52.206;21.006;2023-08-06T09:55:31;7.70;;;5.63;;
16436;SDS011;8328;52.206;21.006;2023-08-06T09:57:58;8.77;;;5.60;;
16436;SDS011;8328;52.206;21.006;2023-08-06T10:00:24;7.97;;;5.93;;
16436;SDS011;8328;52.206;21.006;2023-08-06T10:02:51;6.30;;;5.67;;
16436;SDS011;8328;52.206;21.006;2023-08-06T10:05:21;9.03;;;5.37;;
16436;SDS011;8328;52.206;21.006;2023-08-06T10:07:47;7.03;;;6.33;;
16436;SDS011;8328;52.206;21.006;2023-08-06T10:10:16;8.17;;;5.83;;
16436;SDS011;8328;52.206;21.006;2023-08-06T10:12:44;6.43;;;5.80;;
16436;SDS011;8328;52.206;21.006;2023-08-06T10:15:17;8.07;;;5.60;;
16436;SDS011;8328;52.206;21.006;2023-08-06T10:17:49;6.17;;;5.60;;
16436;SDS011;8328;52.206;21.006;2023-08-06T10:20:18;6.60;;;5.30;;
16436;SDS011;8328;52.206;21.006;2023-08-06T10:22:46;7.93;;;5.70;;
16436;SDS011;8328;52.206;21.006;2023-08-06T10:25:24;6.00;;;5.30;;
16436;SDS011;8328;52.206;21.006;2023-08-06T10:30:25;6.97;;;5.37;;
16436;SDS011;8328;52.206;21.006;2023-08-06T10:33:03;6.80;;;5.50;;
16436;SDS011;8328;52.206;21.006;2023-08-06T10:35:46;6.00;;;5.37;;
16436;SDS011;8328;52.206;21.006;2023-08-06T10:38:18;6.10;;;5.33;;
16436;SDS011;8328;52.206;21.006;2023-08-06T10:43:26;10.03;;;5.40;;
16436;SDS011;8328;52.206;21.006;2023-08-06T10:45:56;7.93;;;5.20;;
16436;SDS011;8328;52.206;21.006;2023-08-06T10:48:36;7.47;;;5.37;;
16436;SDS011;8328;52.206;21.006;2023-08-06T10:51:04;8.13;;;4.73;;
16436;SDS011;8328;52.206;21.006;2023-08-06T10:53:33;5.80;;;5.20;;
16436;SDS011;8328;52.206;21.006;2023-08-06T10:56:00;5.40;;;4.90;;
16436;SDS011;8328;52.206;21.006;2023-08-06T10:58:30;5.30;;;4.80;;
16436;SDS011;8328;52.206;21.006;2023-08-06T11:00:58;6.50;;;4.97;;
16436;SDS011;8328;52.206;21.006;2023-08-06T11:03:24;5.97;;;4.57;;
16436;SDS011;8328;52.206;21.006;2023-08-06T11:05:51;5.50;;;4.90;;
16436;SDS011;8328;52.206;21.006;2023-08-06T11:08:26;5.17;;;4.67;;
16436;SDS011;8328;52.206;21.006;2023-08-06T11:10:53;5.33;;;4.50;;
16436;SDS011;8328;52.206;21.006;2023-08-06T11:13:20;7.30;;;4.73;;
16436;SDS011;8328;52.206;21.006;2023-08-06T11:15:46;4.90;;;4.47;;
16436;SDS011;8328;52.206;21.006;2023-08-06T11:18:12;4.93;;;4.53;;
16436;SDS011;8328;52.206;21.006;2023-08-06T11:20:38;6.13;;;4.37;;
16436;SDS011;8328;52.206;21.006;2023-08-06T11:23:04;4.97;;;4.50;;
16436;SDS011;8328;52.206;21.006;2023-08-06T11:25:31;6.57;;;4.50;;
16436;SDS011;8328;52.206;21.006;2023-08-06T11:27:58;10.00;;;4.93;;
16436;SDS011;8328;52.206;21.006;2023-08-06T11:30:26;6.47;;;4.60;;
16436;SDS011;8328;52.206;21.006;2023-08-06T11:32:52;9.00;;;5.00;;
16436;SDS011;8328;52.206;21.006;2023-08-06T11:35:18;5.23;;;4.73;;
16436;SDS011;8328;52.206;21.006;2023-08-06T11:37:47;5.97;;;4.53;;
16436;SDS011;8328;52.206;21.006;2023-08-06T11:40:16;6.50;;;4.60;;
16436;SDS011;8328;52.206;21.006;2023-08-06T11:42:42;7.33;;;4.90;;
16436;SDS011;8328;52.206;21.006;2023-08-06T11:45:08;9.03;;;5.13;;
16436;SDS011;8328;52.206;21.006;2023-08-06T11:47:37;4.90;;;4.50;;
16436;SDS011;8328;52.206;21.006;2023-08-06T11:50:05;5.00;;;4.47;;
16436;SDS011;8328;52.206;21.006;2023-08-06T11:52:31;7.13;;;5.10;;
16436;SDS011;8328;52.206;21.006;2023-08-06T11:55:07;6.40;;;4.70;;
16436;SDS011;8328;52.206;21.006;2023-08-06T11:57:37;8.97;;;4.90;;
16436;SDS011;8328;52.206;21.006;2023-08-06T12:00:11;5.70;;;4.40;;
16436;SDS011;8328;52.206;21.006;2023-08-06T12:02:41;6.03;;;4.50;;
16436;SDS011;8328;52.206;21.006;2023-08-06T12:05:11;8.90;;;5.17;;
16436;SDS011;8328;52.206;21.006;2023-08-06T12:07:42;5.13;;;4.47;;
16436;SDS011;8328;52.206;21.006;2023-08-06T12:10:12;6.63;;;4.60;;
16436;SDS011;8328;52.206;21.006;2023-08-06T12:12:39;6.30;;;4.60;;
16436;SDS011;8328;52.206;21.006;2023-08-06T12:15:05;9.00;;;4.43;;
16436;SDS011;8328;52.206;21.006;2023-08-06T12:17:34;8.07;;;5.07;;
16436;SDS011;8328;52.206;21.006;2023-08-06T12:20:05;9.33;;;5.50;;
16436;SDS011;8328;52.206;21.006;2023-08-06T12:22:32;5.53;;;4.77;;
16436;SDS011;8328;52.206;21.006;2023-08-06T12:25:18;7.83;;;4.97;;
16436;SDS011;8328;52.206;21.006;2023-08-06T12:27:44;7.90;;;5.20;;
16436;SDS011;8328;52.206;21.006;2023-08-06T12:30:11;6.10;;;4.87;;
16436;SDS011;8328;52.206;21.006;2023-08-06T12:32:38;6.50;;;5.20;;
16436;SDS011;8328;52.206;21.006;2023-08-06T12:35:04;6.07;;;5.47;;
16436;SDS011;8328;52.206;21.006;2023-08-06T12:37:32;7.53;;;5.87;;
16436;SDS011;8328;52.206;21.006;2023-08-06T12:39:58;5.37;;;4.97;;
16436;SDS011;8328;52.206;21.006;2023-08-06T12:42:24;6.70;;;6.00;;
16436;SDS011;8328;52.206;21.006;2023-08-06T12:44:50;6.87;;;5.87;;
16436;SDS011;8328;52.206;21.006;2023-08-06T12:47:17;6.10;;;5.43;;
16436;SDS011;8328;52.206;21.006;2023-08-06T12:49:43;9.67;;;6.20;;
16436;SDS011;8328;52.206;21.006;2023-08-06T12:52:09;7.23;;;5.87;;
16436;SDS011;8328;52.206;21.006;2023-08-06T12:54:37;8.37;;;6.03;;
16436;SDS011;8328;52.206;21.006;2023-08-06T12:57:04;9.07;;;5.80;;
16436;SDS011;8328;52.206;21.006;2023-08-06T12:59:30;6.10;;;5.50;;
16436;SDS011;8328;52.206;21.006;2023-08-06T13:01:58;5.73;;;5.17;;
16436;SDS011;8328;52.206;21.006;2023-08-06T13:04:29;7.33;;;5.37;;
16436;SDS011;8328;52.206;21.006;2023-08-06T13:06:56;6.27;;;5.23;;
16436;SDS011;8328;52.206;21.006;2023-08-06T13:09:21;6.20;;;5.23;;
16436;SDS011;8328;52.206;21.006;2023-08-06T13:11:47;8.00;;;5.53;;
16436;SDS011;8328;52.206;21.006;2023-08-06T13:14:15;5.70;;;5.10;;
16436;SDS011;8328;52.206;21.006;2023-08-06T13:16:41;8.23;;;5.83;;
16436;SDS011;8328;52.206;21.006;2023-08-06T13:19:08;5.47;;;4.80;;
16436;SDS011;8328;52.206;21.006;2023-08-06T13:21:35;5.03;;;4.53;;
16436;SDS011;8328;52.206;21.006;2023-08-06T13:24:07;5.37;;;4.67;;
16436;SDS011;8328;52.206;21.006;2023-08-06T13:26:34;5.63;;;5.03;;
16436;SDS011;8328;52.206;21.006;2023-08-06T13:29:01;7.60;;;4.60;;
16436;SDS011;8328;52.206;21.006;2023-08-06T13:31:27;6.30;;;4.13;;
16436;SDS011;8328;52.206;21.006;2023-08-06T13:33:54;4.85;;;4.10;;
16436;SDS011;8328;52.206;21.006;2023-08-06T13:36:20;4.22;;;3.78;;
16436;SDS011;8328;52.206;21.006;2023-08-06T13:38:47;6.72;;;4.15;;
16436;SDS011;8328;52.206;21.006;2023-08-06T13:41:13;4.03;;;3.72;;
16436;SDS011;8328;52.206;21.006;2023-08-06T13:43:39;4.40;;;4.03;;
16436;SDS011;8328;52.206;21.006;2023-08-06T13:46:05;5.10;;;3.97;;
16436;SDS011;8328;52.206;21.006;2023-08-06T13:48:31;4.15;;;3.80;;
16436;SDS011;8328;52.206;21.006;2023-08-06T13:50:57;4.78;;;4.30;;
16436;SDS011;8328;52.206;21.006;2023-08-06T13:53:23;5.65;;;3.97;;
16436;SDS011;8328;52.206;21.006;2023-08-06T13:55:50;4.55;;;4.15;;
16436;SDS011;8328;52.206;21.006;2023-08-06T13:58:16;7.10;;;4.20;;
16436;SDS011;8328;52.206;21.006;2023-08-06T14:00:41;8.70;;;4.90;;
16436;SDS011;8328;52.206;21.006;2023-08-06T14:03:07;5.37;;;4.27;;
16436;SDS011;8328;52.206;21.006;2023-08-06T14:05:34;4.73;;;4.33;;
16436;SDS011;8328;52.206;21.006;2023-08-06T14:08:01;7.90;;;4.63;;
16436;SDS011;8328;52.206;21.006;2023-08-06T14:10:28;4.80;;;4.40;;
16436;SDS011;8328;52.206;21.006;2023-08-06T14:12:54;5.50;;;4.18;;
16436;SDS011;8328;52.206;21.006;2023-08-06T14:15:21;4.57;;;4.15;;
16436;SDS011;8328;52.206;21.006;2023-08-06T14:17:47;5.38;;;3.72;;
16436;SDS011;8328;52.206;21.006;2023-08-06T14:20:13;4.10;;;3.78;;
16436;SDS011;8328;52.206;21.006;2023-08-06T14:22:41;4.07;;;3.70;;
16436;SDS011;8328;52.206;21.006;2023-08-06T14:25:08;3.55;;;3.30;;
16436;SDS011;8328;52.206;21.006;2023-08-06T14:27:34;3.40;;;3.10;;
16436;SDS011;8328;52.206;21.006;2023-08-06T14:30:00;4.55;;;3.83;;
16436;SDS011;8328;52.206;21.006;2023-08-06T14:32:25;3.60;;;3.35;;
16436;SDS011;8328;52.206;21.006;2023-08-06T14:34:51;4.25;;;3.85;;
16436;SDS011;8328;52.206;21.006;2023-08-06T14:37:17;4.57;;;3.40;;
16436;SDS011;8328;52.206;21.006;2023-08-06T14:39:43;3.60;;;3.10;;
16436;SDS011;8328;52.206;21.006;2023-08-06T14:42:09;3.53;;;2.72;;
16436;SDS011;8328;52.206;21.006;2023-08-06T14:44:34;3.95;;;3.20;;
16436;SDS011;8328;52.206;21.006;2023-08-06T14:47:00;3.63;;;2.72;;
16436;SDS011;8328;52.206;21.006;2023-08-06T14:49:27;3.00;;;2.80;;
16436;SDS011;8328;52.206;21.006;2023-08-06T14:51:53;3.58;;;2.90;;
16436;SDS011;8328;52.206;21.006;2023-08-06T14:54:19;3.00;;;2.70;;